createdAt,value
2022-08-31T00:01:25.613Z,13.50
2022-08-31T00:06:33.468Z,13.70
2022-08-31T00:11:39.338Z,13.70
2022-08-31T00:16:46.331Z,13.60
2022-08-31T00:21:51.723Z,13.80
2022-08-31T00:26:56.654Z,13.80
2022-08-31T00:32:02.650Z,13.90
2022-08-31T00:37:07.736Z,13.80
2022-08-31T00:42:12.780Z,13.80
2022-08-31T00:47:18.150Z,13.80
2022-08-31T00:52:27.115Z,14.00
2022-08-31T00:57:36.281Z,14.10
2022-08-31T01:02:42.588Z,13.70
2022-08-31T01:07:49.653Z,13.70
2022-08-31T01:12:57.499Z,13.30
2022-08-31T01:18:05.506Z,13.40
2022-08-31T01:23:20.579Z,13.60
2022-08-31T01:28:27.442Z,13.70
2022-08-31T01:33:34.666Z,13.60
2022-08-31T01:38:40.058Z,13.60
2022-08-31T01:43:45.226Z,13.40
2022-08-31T01:48:50.679Z,13.40
2022-08-31T01:53:56.569Z,13.30
2022-08-31T01:59:07.651Z,13.40
2022-08-31T02:04:11.119Z,13.40
2022-08-31T02:09:17.847Z,13.30
2022-08-31T02:14:23.849Z,12.90
2022-08-31T02:19:30.253Z,13.00
2022-08-31T02:24:35.739Z,13.20
2022-08-31T02:29:41.177Z,13.20
2022-08-31T02:34:49.661Z,12.90
2022-08-31T02:39:55.453Z,13.00
2022-08-31T02:45:01.501Z,12.90
2022-08-31T02:50:08.261Z,12.60
2022-08-31T02:55:14.248Z,12.80
2022-08-31T03:00:22.470Z,12.90
2022-08-31T03:05:29.094Z,12.70
2022-08-31T03:10:34.532Z,12.60
2022-08-31T03:15:40.159Z,12.40
2022-08-31T03:20:45.130Z,12.90
2022-08-31T03:25:50.971Z,12.90
2022-08-31T03:30:56.227Z,12.80
2022-08-31T03:36:04.692Z,12.80
2022-08-31T03:41:12.500Z,12.80
2022-08-31T03:46:18.039Z,12.90
2022-08-31T03:51:23.224Z,12.90
2022-08-31T03:56:28.890Z,12.90
2022-08-31T04:01:33.865Z,13.10
2022-08-31T04:06:42.129Z,13.20
2022-08-31T04:11:48.306Z,13.40
2022-08-31T04:16:54.095Z,13.50
2022-08-31T04:21:59.433Z,13.10
2022-08-31T04:27:04.578Z,13.20
2022-08-31T04:32:10.039Z,13.10
2022-08-31T04:37:15.487Z,12.90
2022-08-31T04:42:21.497Z,13.20
2022-08-31T04:47:26.991Z,13.40
2022-08-31T04:52:33.624Z,13.30
2022-08-31T04:57:40.615Z,13.40
2022-08-31T05:02:52.708Z,13.00
2022-08-31T05:07:53.800Z,13.20
2022-08-31T05:12:59.231Z,13.60
2022-08-31T05:18:04.727Z,13.70
2022-08-31T05:23:10.779Z,13.60
2022-08-31T05:28:18.206Z,13.60
2022-08-31T05:33:23.654Z,13.70
2022-08-31T05:38:28.618Z,14.00
2022-08-31T05:43:34.943Z,13.80
2022-08-31T05:48:40.781Z,14.00
2022-08-31T05:53:47.358Z,14.10
2022-08-31T05:58:54.123Z,14.40
2022-08-31T06:04:00.642Z,14.50
2022-08-31T06:09:08.445Z,14.50
2022-08-31T06:14:14.659Z,14.80
2022-08-31T06:19:20.555Z,15.00
2022-08-31T06:24:27.254Z,15.40
2022-08-31T06:29:33.707Z,15.50
2022-08-31T06:34:40.535Z,15.60
2022-08-31T06:39:47.838Z,15.50
2022-08-31T06:44:53.302Z,15.60
2022-08-31T06:49:58.586Z,15.60
2022-08-31T06:55:03.629Z,15.50
2022-08-31T07:00:09.552Z,15.80
2022-08-31T07:05:19.916Z,16.00
2022-08-31T07:10:22.786Z,15.90
2022-08-31T07:15:27.902Z,16.10
2022-08-31T07:20:33.225Z,16.00
2022-08-31T07:25:39.440Z,16.10
2022-08-31T07:30:46.396Z,16.40
2022-08-31T07:35:52.727Z,16.70
2022-08-31T07:41:16.718Z,16.90
2022-08-31T07:46:22.946Z,17.00
2022-08-31T07:51:29.631Z,17.10
2022-08-31T07:56:37.401Z,17.30
2022-08-31T08:01:44.010Z,17.10
2022-08-31T08:06:50.139Z,17.30
2022-08-31T08:12:01.276Z,17.50
2022-08-31T08:17:07.621Z,17.80
2022-08-31T08:22:13.005Z,17.90
2022-08-31T08:27:19.484Z,18.20
2022-08-31T08:32:25.871Z,18.10
2022-08-31T08:37:56.548Z,18.30
2022-08-31T08:42:40.772Z,17.90
2022-08-31T08:47:47.916Z,17.80
2022-08-31T08:52:55.926Z,17.70
2022-08-31T08:58:03.125Z,17.60
2022-08-31T09:03:27.514Z,17.50
2022-08-31T09:08:54.852Z,17.70
2022-08-31T09:14:08.783Z,17.70
2022-08-31T09:19:17.703Z,17.90
2022-08-31T09:24:26.844Z,17.40
2022-08-31T09:29:33.201Z,17.40
2022-08-31T09:34:44.595Z,17.30
2022-08-31T09:39:53.037Z,17.30
2022-08-31T09:45:05.475Z,17.20
2022-08-31T09:50:13.515Z,17.30
2022-08-31T09:55:25.408Z,17.50
2022-08-31T10:00:42.925Z,17.60
2022-08-31T10:05:50.616Z,17.40
2022-08-31T10:11:00.682Z,17.60
2022-08-31T10:16:11.024Z,17.80
2022-08-31T10:21:21.608Z,17.80
2022-08-31T10:26:34.943Z,17.70
2022-08-31T10:31:48.348Z,17.80
2022-08-31T10:36:59.338Z,17.70
2022-08-31T10:42:08.172Z,17.70
2022-08-31T10:47:21.660Z,17.40
2022-08-31T10:52:29.714Z,17.40
2022-08-31T10:57:41.270Z,17.30
2022-08-31T11:02:56.189Z,17.20
2022-08-31T11:08:04.660Z,17.10
2022-08-31T11:13:15.259Z,17.00
2022-08-31T11:18:26.050Z,17.10
2022-08-31T11:23:42.184Z,16.90
2022-08-31T11:28:51.196Z,16.90
2022-08-31T11:34:15.608Z,17.00
2022-08-31T11:39:11.242Z,17.40
2022-08-31T11:44:36.939Z,17.50
2022-08-31T11:49:47.406Z,17.70
2022-08-31T11:54:55.962Z,17.70
2022-08-31T12:00:02.571Z,17.70
2022-08-31T12:05:08.294Z,18.10
2022-08-31T12:10:18.288Z,18.20
2022-08-31T12:15:40.936Z,18.30
2022-08-31T12:21:17.191Z,18.10
2022-08-31T12:26:25.215Z,18.20
2022-08-31T12:31:30.579Z,18.70
2022-08-31T12:36:37.952Z,18.70
2022-08-31T12:41:46.575Z,18.60
2022-08-31T12:47:24.044Z,18.40
2022-08-31T12:52:34.010Z,18.50
2022-08-31T12:58:01.719Z,18.20
2022-08-31T13:03:10.911Z,18.40
2022-08-31T13:08:26.455Z,18.20
2022-08-31T13:13:31.770Z,18.30
2022-08-31T13:18:37.559Z,18.70
2022-08-31T13:23:47.090Z,18.80
2022-08-31T13:28:55.950Z,18.80
2022-08-31T13:34:03.990Z,19.10
2022-08-31T13:39:18.264Z,19.20
2022-08-31T13:44:28.796Z,19.20
2022-08-31T13:49:42.070Z,19.20
2022-08-31T13:54:58.825Z,19.00
2022-08-31T14:00:24.232Z,18.90
2022-08-31T14:05:36.381Z,18.50
2022-08-31T14:10:46.392Z,18.50
2022-08-31T14:15:56.452Z,18.80
2022-08-31T14:21:27.456Z,18.50
2022-08-31T14:26:24.334Z,18.60
2022-08-31T14:31:38.495Z,18.40
2022-08-31T14:36:47.275Z,18.20
2022-08-31T14:41:55.819Z,18.40
2022-08-31T14:47:02.150Z,18.40
2022-08-31T14:52:08.607Z,18.20
2022-08-31T14:57:17.224Z,18.10
2022-08-31T15:02:23.630Z,18.20
2022-08-31T15:07:31.119Z,18.20
2022-08-31T15:12:37.581Z,18.10
2022-08-31T15:17:43.381Z,18.10
2022-08-31T15:22:48.831Z,18.00
2022-08-31T15:27:54.669Z,18.10
2022-08-31T15:33:01.430Z,18.40
2022-08-31T15:38:08.711Z,18.10
2022-08-31T15:43:16.206Z,18.20
2022-08-31T15:48:39.487Z,18.20
2022-08-31T15:54:01.023Z,18.30
2022-08-31T15:58:56.244Z,17.90
2022-08-31T16:04:01.809Z,17.90
2022-08-31T16:09:08.645Z,18.00
2022-08-31T16:14:15.857Z,17.90
2022-08-31T16:19:34.555Z,17.60
2022-08-31T16:24:28.615Z,17.90
2022-08-31T16:29:34.802Z,17.90
2022-08-31T16:34:42.943Z,18.00
2022-08-31T16:39:49.389Z,17.90
2022-08-31T16:44:59.836Z,17.70
2022-08-31T16:50:04.976Z,17.50
2022-08-31T16:55:13.193Z,17.40
2022-08-31T17:00:19.020Z,17.40
2022-08-31T17:05:26.468Z,17.20
2022-08-31T17:10:34.605Z,17.30
2022-08-31T17:15:41.308Z,17.10
2022-08-31T17:20:49.160Z,16.90
2022-08-31T17:25:56.460Z,16.80
2022-08-31T17:31:03.901Z,16.90
2022-08-31T17:36:10.169Z,16.60
2022-08-31T17:41:17.039Z,16.40
2022-08-31T17:46:22.441Z,16.40
2022-08-31T17:51:32.459Z,16.50
2022-08-31T17:56:47.870Z,16.40
2022-08-31T18:01:57.050Z,16.20
2022-08-31T18:07:04.769Z,16.30
2022-08-31T18:12:10.700Z,16.40
2022-08-31T18:17:20.201Z,16.20
2022-08-31T18:22:26.893Z,16.10
2022-08-31T18:27:33.059Z,16.10
2022-08-31T18:32:38.996Z,16.10
2022-08-31T18:37:50.214Z,16.00
2022-08-31T18:43:17.938Z,15.80
2022-08-31T18:48:26.578Z,15.70
2022-08-31T18:53:37.267Z,15.90
2022-08-31T18:58:43.504Z,15.70
2022-08-31T19:03:50.364Z,15.90
2022-08-31T19:08:56.020Z,15.50
2022-08-31T19:14:03.517Z,15.10
2022-08-31T19:19:09.815Z,15.30
2022-08-31T19:24:17.478Z,15.20
2022-08-31T19:29:27.192Z,15.20
2022-08-31T19:34:37.212Z,15.20
2022-08-31T19:39:46.224Z,15.30
2022-08-31T19:44:54.995Z,15.40
2022-08-31T19:50:03.217Z,15.10
2022-08-31T19:55:09.433Z,15.40
2022-08-31T20:00:16.038Z,14.90
2022-08-31T20:05:22.273Z,15.00
2022-08-31T20:10:28.831Z,14.90
2022-08-31T20:15:35.608Z,14.90
2022-08-31T20:20:46.228Z,14.70
2022-08-31T20:25:53.519Z,14.70
2022-08-31T20:31:01.234Z,14.80
2022-08-31T20:36:20.706Z,14.80
2022-08-31T20:41:32.709Z,14.70
2022-08-31T20:47:03.069Z,14.70
2022-08-31T20:52:09.841Z,14.80
2022-08-31T20:57:17.091Z,14.80
2022-08-31T21:02:23.158Z,14.50
2022-08-31T21:07:28.966Z,14.10
2022-08-31T21:12:34.290Z,14.00
2022-08-31T21:17:41.080Z,13.90
2022-08-31T21:22:46.223Z,13.80
2022-08-31T21:27:53.379Z,13.90
2022-08-31T21:32:58.454Z,13.90
2022-08-31T21:38:04.062Z,13.60
2022-08-31T21:43:09.942Z,13.80
2022-08-31T21:48:16.027Z,13.70
2022-08-31T21:53:22.157Z,13.60
2022-08-31T21:58:27.127Z,13.70
2022-08-31T22:03:33.776Z,13.40
2022-08-31T22:08:41.554Z,13.10
2022-08-31T22:13:48.002Z,13.20
2022-08-31T22:19:01.851Z,13.00
2022-08-31T22:24:10.722Z,13.10
2022-08-31T22:29:22.448Z,13.00
2022-08-31T22:34:28.336Z,12.60
2022-08-31T22:39:33.861Z,12.80
2022-08-31T22:44:41.003Z,13.00
2022-08-31T22:49:47.158Z,13.00
2022-08-31T22:54:52.595Z,12.90
2022-08-31T22:59:58.019Z,13.00
2022-08-31T23:05:03.629Z,12.70
2022-08-31T23:10:10.213Z,12.60
2022-08-31T23:15:16.379Z,12.60
2022-08-31T23:20:24.372Z,12.60
2022-08-31T23:25:31.306Z,12.60
2022-08-31T23:30:40.162Z,12.50
2022-08-31T23:35:47.249Z,12.40
2022-08-31T23:40:54.086Z,12.40
2022-08-31T23:46:03.464Z,12.30
2022-08-31T23:51:10.938Z,12.30
2022-08-31T23:56:18.615Z,12.00
